createdAt,value
2023-02-09T00:00:53.764Z,61.15
2023-02-09T00:02:55.798Z,61.48
2023-02-09T00:04:57.732Z,61.44
2023-02-09T00:07:00.722Z,60.92
2023-02-09T00:09:03.680Z,61.15
2023-02-09T00:11:09.665Z,61.55
2023-02-09T00:13:15.234Z,61.96
2023-02-09T00:15:17.325Z,62.73
2023-02-09T00:17:19.380Z,63.44
2023-02-09T00:19:22.259Z,63.07
2023-02-09T00:21:24.201Z,62.87
2023-02-09T00:23:28.233Z,62.61
2023-02-09T00:25:30.158Z,62.81
2023-02-09T00:27:35.617Z,63.15
2023-02-09T00:29:37.850Z,63.29
2023-02-09T00:31:40.112Z,63.35
2023-02-09T00:33:42.115Z,63.17
2023-02-09T00:35:44.801Z,62.90
2023-02-09T00:37:46.797Z,63.17
2023-02-09T00:39:48.703Z,62.75
2023-02-09T00:41:53.722Z,63.00
2023-02-09T00:43:55.659Z,62.72
2023-02-09T00:45:57.816Z,62.79
2023-02-09T00:48:00.595Z,62.47
2023-02-09T00:50:06.795Z,62.03
2023-02-09T00:52:10.049Z,62.31
2023-02-09T00:54:13.172Z,62.35
2023-02-09T00:56:15.159Z,62.85
2023-02-09T00:58:17.442Z,62.61
2023-02-09T01:00:20.747Z,62.40
2023-02-09T01:02:22.830Z,62.41
2023-02-09T01:04:24.880Z,62.61
2023-02-09T01:06:26.947Z,62.29
2023-02-09T01:08:28.889Z,62.64
2023-02-09T01:10:30.917Z,62.38
2023-02-09T01:12:33.093Z,62.28
2023-02-09T01:14:35.076Z,62.37
2023-02-09T01:16:37.100Z,62.10
2023-02-09T01:18:39.596Z,61.84
2023-02-09T01:20:42.772Z,62.41
2023-02-09T01:22:44.841Z,61.89
2023-02-09T01:24:47.307Z,62.25
2023-02-09T01:26:49.392Z,61.88
2023-02-09T01:28:52.762Z,61.62
2023-02-09T01:30:54.851Z,62.06
2023-02-09T01:32:56.967Z,61.86
2023-02-09T01:34:59.000Z,62.05
2023-02-09T01:37:01.002Z,62.31
2023-02-09T01:39:04.096Z,62.14
2023-02-09T01:41:06.055Z,62.44
2023-02-09T01:43:11.468Z,61.98
2023-02-09T01:45:20.420Z,62.11
2023-02-09T01:47:22.462Z,62.50
2023-02-09T01:49:27.013Z,62.39
2023-02-09T01:51:30.667Z,62.74
2023-02-09T01:53:33.203Z,62.14
2023-02-09T01:55:40.546Z,62.29
2023-02-09T01:57:49.287Z,62.60
2023-02-09T01:59:56.728Z,62.01
2023-02-09T02:01:58.711Z,62.69
2023-02-09T02:04:01.041Z,62.95
2023-02-09T02:06:09.364Z,62.34
2023-02-09T02:08:19.461Z,62.55
2023-02-09T02:10:22.197Z,62.99
2023-02-09T02:12:25.070Z,63.39
2023-02-09T02:14:30.164Z,62.91
2023-02-09T02:16:47.513Z,63.31
2023-02-09T02:18:52.960Z,63.77
2023-02-09T02:21:01.188Z,63.75
2023-02-09T02:23:09.503Z,64.03
2023-02-09T02:25:17.601Z,64.01
2023-02-09T02:27:30.407Z,63.48
2023-02-09T02:29:43.591Z,63.86
2023-02-09T02:31:58.272Z,63.93
2023-02-09T02:34:08.372Z,63.19
2023-02-09T02:36:13.985Z,63.08
2023-02-09T02:38:20.634Z,63.55
2023-02-09T02:40:30.513Z,62.83
2023-02-09T02:42:45.495Z,63.58
2023-02-09T02:44:59.248Z,63.08
2023-02-09T02:47:07.243Z,63.85
2023-02-09T02:49:24.905Z,63.89
2023-02-09T02:51:33.354Z,63.31
2023-02-09T02:53:37.822Z,63.17
2023-02-09T02:55:41.616Z,63.33
2023-02-09T02:57:47.488Z,63.25
2023-02-09T02:59:57.617Z,62.66
2023-02-09T03:02:06.500Z,63.09
2023-02-09T03:04:10.161Z,62.73
2023-02-09T03:06:13.982Z,62.86
2023-02-09T03:08:16.307Z,62.47
2023-02-09T03:10:24.605Z,63.00
2023-02-09T03:12:29.919Z,62.95
2023-02-09T03:14:36.320Z,62.81
2023-02-09T03:16:40.115Z,62.52
2023-02-09T03:18:46.709Z,62.72
2023-02-09T03:20:52.281Z,62.41
2023-02-09T03:23:00.455Z,62.29
2023-02-09T03:25:12.808Z,62.36
2023-02-09T03:27:22.087Z,62.32
2023-02-09T03:29:27.840Z,61.87
2023-02-09T03:31:31.934Z,62.02
2023-02-09T03:33:37.258Z,61.98
2023-02-09T03:35:41.569Z,62.17
2023-02-09T03:37:43.821Z,62.12
2023-02-09T03:39:45.884Z,61.79
2023-02-09T03:41:47.874Z,61.86
2023-02-09T03:43:53.031Z,61.79
2023-02-09T03:45:54.926Z,62.14
2023-02-09T03:47:57.031Z,61.90
2023-02-09T03:49:59.523Z,62.10
2023-02-09T03:52:02.484Z,61.73
2023-02-09T03:54:04.517Z,62.07
2023-02-09T03:56:09.422Z,61.99
2023-02-09T03:58:11.454Z,62.12
2023-02-09T04:00:14.563Z,61.73
2023-02-09T04:02:16.739Z,62.01
2023-02-09T04:04:19.020Z,62.09
2023-02-09T04:06:21.045Z,61.96
2023-02-09T04:08:22.971Z,61.94
2023-02-09T04:10:24.859Z,62.83
2023-02-09T04:12:26.868Z,63.15
2023-02-09T04:14:28.805Z,63.11
2023-02-09T04:16:31.025Z,62.66
2023-02-09T04:18:33.123Z,62.93
2023-02-09T04:20:35.047Z,63.24
2023-02-09T04:22:37.057Z,63.12
2023-02-09T04:24:39.102Z,62.78
2023-02-09T04:26:41.065Z,62.27
2023-02-09T04:28:43.511Z,62.78
2023-02-09T04:30:45.750Z,63.00
2023-02-09T04:32:47.926Z,62.42
2023-02-09T04:34:49.934Z,62.51
2023-02-09T04:36:51.791Z,62.37
2023-02-09T04:38:53.742Z,61.82
2023-02-09T04:40:56.490Z,62.18
2023-02-09T04:42:58.404Z,61.90
2023-02-09T04:45:00.481Z,62.49
2023-02-09T04:47:02.752Z,62.34
2023-02-09T04:49:04.708Z,62.32
2023-02-09T04:51:07.247Z,62.59
2023-02-09T04:53:09.615Z,62.69
2023-02-09T04:55:11.664Z,62.42
2023-02-09T04:57:16.792Z,62.65
2023-02-09T04:59:21.819Z,62.07
2023-02-09T05:01:24.867Z,61.66
2023-02-09T05:03:28.022Z,61.98
2023-02-09T05:05:30.494Z,62.89
2023-02-09T05:07:32.478Z,62.36
2023-02-09T05:09:34.405Z,62.95
2023-02-09T05:11:36.290Z,62.67
2023-02-09T05:13:38.430Z,62.79
2023-02-09T05:15:40.524Z,62.77
2023-02-09T05:17:42.518Z,62.99
2023-02-09T05:19:44.483Z,62.71
2023-02-09T05:21:46.510Z,62.93
2023-02-09T05:23:48.457Z,63.17
2023-02-09T05:25:50.495Z,63.26
2023-02-09T05:27:52.631Z,62.65
2023-02-09T05:29:54.584Z,63.33
2023-02-09T05:31:56.698Z,63.26
2023-02-09T05:33:58.815Z,63.42
2023-02-09T05:36:00.858Z,63.54
2023-02-09T05:38:02.918Z,63.60
2023-02-09T05:40:05.763Z,63.22
2023-02-09T05:42:10.840Z,63.32
2023-02-09T05:44:12.803Z,63.24
2023-02-09T05:46:14.895Z,63.16
2023-02-09T05:48:17.064Z,63.03
2023-02-09T05:50:19.289Z,62.92
2023-02-09T05:52:21.268Z,62.66
2023-02-09T05:54:23.247Z,62.75
2023-02-09T05:56:25.345Z,63.08
2023-02-09T05:58:27.443Z,63.09
2023-02-09T06:00:30.099Z,63.22
2023-02-09T06:02:32.293Z,62.45
2023-02-09T06:04:34.565Z,62.46
2023-02-09T06:06:36.924Z,62.52
2023-02-09T06:08:39.475Z,62.50
2023-02-09T06:10:41.495Z,62.72
2023-02-09T06:12:43.629Z,62.30
2023-02-09T06:14:45.755Z,62.64
2023-02-09T06:16:48.368Z,62.99
2023-02-09T06:18:50.269Z,63.01
2023-02-09T06:20:53.978Z,62.50
2023-02-09T06:22:57.261Z,62.83
2023-02-09T06:24:59.250Z,62.64
2023-02-09T06:27:01.351Z,62.88
2023-02-09T06:29:04.040Z,62.81
2023-02-09T06:31:07.180Z,62.96
2023-02-09T06:33:09.174Z,62.88
2023-02-09T06:35:11.113Z,62.84
2023-02-09T06:37:13.135Z,62.66
2023-02-09T06:39:15.188Z,62.69
2023-02-09T06:41:17.191Z,63.04
2023-02-09T06:43:19.127Z,63.54
2023-02-09T06:45:21.137Z,63.09
2023-02-09T06:47:23.077Z,63.23
2023-02-09T06:49:26.886Z,62.85
2023-02-09T06:51:29.210Z,62.87
2023-02-09T06:53:31.312Z,62.80
2023-02-09T06:55:33.974Z,62.35
2023-02-09T06:57:36.113Z,62.20
2023-02-09T06:59:40.009Z,62.19
2023-02-09T07:01:42.097Z,62.42
2023-02-09T07:03:44.586Z,62.24
2023-02-09T07:05:46.549Z,62.37
2023-02-09T07:07:48.581Z,62.81
2023-02-09T07:09:50.511Z,62.49
2023-02-09T07:11:52.569Z,63.46
2023-02-09T07:13:54.679Z,63.41
2023-02-09T07:15:57.831Z,62.94
2023-02-09T07:17:59.968Z,63.11
2023-02-09T07:20:02.092Z,63.24
2023-02-09T07:22:04.448Z,63.74
2023-02-09T07:24:07.312Z,63.88
2023-02-09T07:26:13.695Z,64.52
2023-02-09T07:28:17.225Z,64.53
2023-02-09T07:30:19.499Z,63.88
2023-02-09T07:32:24.011Z,64.18
2023-02-09T07:34:26.272Z,63.84
2023-02-09T07:36:28.530Z,63.55
2023-02-09T07:38:43.585Z,63.89
2023-02-09T07:40:47.007Z,63.77
2023-02-09T07:42:51.877Z,63.66
2023-02-09T07:44:53.951Z,63.89
2023-02-09T07:46:55.988Z,64.36
2023-02-09T07:49:01.084Z,63.65
2023-02-09T07:51:04.072Z,63.88
2023-02-09T07:53:06.201Z,63.25
2023-02-09T07:55:08.711Z,63.11
2023-02-09T07:57:13.028Z,63.76
2023-02-09T07:59:15.295Z,64.03
2023-02-09T08:01:18.436Z,63.65
2023-02-09T08:03:23.434Z,63.66
2023-02-09T08:05:32.211Z,64.19
2023-02-09T08:07:34.686Z,63.78
2023-02-09T08:09:36.970Z,64.22
2023-02-09T08:11:46.023Z,63.90
2023-02-09T08:13:49.973Z,63.94
2023-02-09T08:15:57.098Z,63.90
2023-02-09T08:18:03.021Z,63.79
2023-02-09T08:20:10.907Z,63.38
2023-02-09T08:22:13.165Z,63.49
2023-02-09T08:24:19.072Z,64.09
2023-02-09T08:26:21.808Z,63.35
2023-02-09T08:28:38.175Z,63.10
2023-02-09T08:30:40.933Z,63.11
2023-02-09T08:32:43.751Z,63.34
2023-02-09T08:34:46.228Z,63.42
2023-02-09T08:36:48.440Z,63.49
2023-02-09T08:38:51.026Z,63.28
2023-02-09T08:40:53.301Z,62.89
2023-02-09T08:42:55.731Z,63.48
2023-02-09T08:44:58.385Z,63.22
2023-02-09T08:47:00.717Z,63.65
2023-02-09T08:49:03.250Z,63.77
2023-02-09T08:51:06.851Z,63.47
2023-02-09T08:53:09.173Z,63.65
2023-02-09T08:55:12.132Z,63.88
2023-02-09T08:57:14.629Z,63.39
2023-02-09T08:59:19.757Z,63.10
2023-02-09T09:01:22.774Z,63.47
2023-02-09T09:03:29.067Z,62.93
2023-02-09T09:05:32.213Z,62.77
2023-02-09T09:07:34.941Z,62.16
2023-02-09T09:09:37.461Z,61.70
2023-02-09T09:11:39.803Z,61.87
2023-02-09T09:13:43.717Z,62.36
2023-02-09T09:15:46.684Z,62.04
2023-02-09T09:17:49.716Z,61.97
2023-02-09T09:19:56.054Z,61.74
2023-02-09T09:22:00.870Z,61.66
2023-02-09T09:24:03.170Z,61.25
2023-02-09T09:26:05.622Z,61.43
2023-02-09T09:28:09.212Z,61.61
2023-02-09T09:30:12.935Z,61.30
2023-02-09T09:32:15.409Z,61.13
2023-02-09T09:34:17.737Z,61.05
2023-02-09T09:36:21.094Z,60.98
2023-02-09T09:38:23.343Z,61.10
2023-02-09T09:40:29.263Z,60.94
2023-02-09T09:42:36.501Z,61.05
2023-02-09T09:44:47.123Z,60.79
2023-02-09T09:46:53.554Z,60.95
2023-02-09T09:48:58.216Z,60.70
2023-02-09T09:51:09.713Z,60.37
2023-02-09T09:53:17.435Z,60.69
2023-02-09T09:55:24.958Z,60.76
2023-02-09T09:57:30.575Z,60.71
2023-02-09T09:59:39.328Z,60.72
2023-02-09T10:01:41.739Z,61.04
2023-02-09T10:03:45.085Z,61.21
2023-02-09T10:05:52.223Z,60.91
2023-02-09T10:08:01.949Z,60.57
2023-02-09T10:10:14.288Z,60.32
2023-02-09T10:12:23.320Z,60.37
2023-02-09T10:14:25.806Z,60.52
2023-02-09T10:16:34.871Z,60.57
2023-02-09T10:18:38.441Z,60.62
2023-02-09T10:20:47.216Z,60.86
2023-02-09T10:22:52.273Z,60.96
2023-02-09T10:24:54.716Z,61.28
2023-02-09T10:27:03.177Z,60.63
2023-02-09T10:29:11.806Z,60.07
2023-02-09T10:31:17.801Z,60.36
2023-02-09T10:33:20.443Z,60.47
2023-02-09T10:35:28.541Z,60.75
2023-02-09T10:37:34.552Z,60.75
2023-02-09T10:39:37.169Z,60.45
2023-02-09T10:41:42.526Z,60.02
2023-02-09T10:43:52.846Z,60.15
2023-02-09T10:45:58.106Z,60.00
2023-02-09T10:48:15.909Z,60.19
2023-02-09T10:50:18.897Z,59.95
2023-02-09T10:52:24.273Z,60.04
2023-02-09T10:54:28.107Z,60.18
2023-02-09T10:56:36.284Z,58.98
2023-02-09T10:58:38.944Z,59.77
2023-02-09T11:00:51.008Z,59.96
2023-02-09T11:02:58.128Z,59.89
2023-02-09T11:05:00.528Z,60.15
2023-02-09T11:07:09.656Z,60.51
2023-02-09T11:09:17.609Z,60.44
2023-02-09T11:11:29.249Z,59.94
2023-02-09T11:13:34.975Z,60.03
2023-02-09T11:15:48.280Z,59.62
2023-02-09T11:17:56.715Z,59.63
2023-02-09T11:20:10.872Z,59.75
2023-02-09T11:22:15.296Z,58.96
2023-02-09T11:24:21.965Z,58.92
2023-02-09T11:26:30.303Z,58.39
2023-02-09T11:28:35.977Z,58.87
2023-02-09T11:30:45.254Z,57.91
2023-02-09T11:32:55.718Z,57.36
2023-02-09T11:35:01.123Z,57.48
2023-02-09T11:37:09.007Z,57.28
2023-02-09T11:39:14.611Z,56.85
2023-02-09T11:41:30.152Z,56.28
2023-02-09T11:43:39.739Z,57.41
2023-02-09T11:45:48.432Z,57.14
2023-02-09T11:47:54.296Z,56.53
2023-02-09T11:49:59.468Z,55.51
2023-02-09T11:52:04.441Z,56.14
2023-02-09T11:54:12.920Z,56.01
2023-02-09T11:56:17.845Z,55.37
2023-02-09T11:58:26.378Z,54.66
2023-02-09T12:00:53.459Z,55.22
2023-02-09T12:03:10.907Z,54.75
2023-02-09T12:05:17.794Z,54.04
2023-02-09T12:07:25.426Z,54.32
2023-02-09T12:09:32.228Z,54.55
2023-02-09T12:11:45.567Z,53.04
2023-02-09T12:14:00.742Z,53.37
2023-02-09T12:16:12.746Z,53.20
2023-02-09T12:18:22.007Z,53.20
2023-02-09T12:20:26.303Z,52.79
2023-02-09T12:22:34.634Z,52.90
2023-02-09T12:24:40.937Z,52.42
2023-02-09T12:26:44.862Z,52.21
2023-02-09T12:28:48.613Z,52.30
2023-02-09T12:30:51.677Z,52.17
2023-02-09T12:33:14.457Z,52.67
2023-02-09T12:35:27.901Z,52.16
2023-02-09T12:37:30.377Z,52.32
2023-02-09T12:39:34.311Z,52.62
2023-02-09T12:41:41.317Z,52.43
2023-02-09T12:43:45.800Z,52.41
2023-02-09T12:46:11.317Z,52.42
2023-02-09T12:48:19.598Z,51.90
2023-02-09T12:50:32.134Z,51.66
2023-02-09T12:52:34.784Z,50.96
2023-02-09T12:54:41.665Z,50.90
2023-02-09T12:56:44.136Z,51.01
2023-02-09T12:58:47.242Z,50.47
2023-02-09T13:00:54.955Z,50.52
2023-02-09T13:03:08.017Z,50.35
2023-02-09T13:05:16.094Z,49.66
2023-02-09T13:07:29.615Z,49.64
2023-02-09T13:09:38.789Z,49.96
2023-02-09T13:11:48.468Z,49.85
2023-02-09T13:13:57.031Z,50.07
2023-02-09T13:16:04.084Z,50.12
2023-02-09T13:18:20.387Z,49.47
2023-02-09T13:20:29.738Z,49.35
2023-02-09T13:22:40.232Z,49.08
2023-02-09T13:24:52.781Z,46.98
2023-02-09T13:26:57.492Z,46.07
2023-02-09T13:29:19.355Z,46.06
2023-02-09T13:31:30.338Z,45.44
2023-02-09T13:33:41.237Z,45.25
2023-02-09T13:35:55.019Z,45.20
2023-02-09T13:38:00.160Z,44.29
2023-02-09T13:40:14.218Z,44.26
2023-02-09T13:42:21.390Z,44.22
2023-02-09T13:44:28.072Z,43.86
2023-02-09T13:46:35.565Z,43.51
2023-02-09T13:48:39.260Z,43.34
2023-02-09T13:50:48.714Z,42.94
2023-02-09T13:52:51.290Z,42.36
2023-02-09T13:54:54.859Z,42.28
2023-02-09T13:56:57.574Z,41.77
2023-02-09T13:59:01.174Z,40.76
2023-02-09T14:01:05.680Z,40.43
2023-02-09T14:03:16.710Z,40.19
2023-02-09T14:05:25.886Z,39.76
2023-02-09T14:07:33.641Z,39.57
2023-02-09T14:09:46.618Z,39.93
2023-02-09T14:11:55.771Z,38.90
2023-02-09T14:14:03.171Z,37.45
2023-02-09T14:16:07.757Z,36.97
2023-02-09T14:18:16.211Z,37.22
2023-02-09T14:20:22.694Z,36.67
2023-02-09T14:22:28.375Z,37.13
2023-02-09T14:24:43.993Z,37.06
2023-02-09T14:26:52.091Z,37.12
2023-02-09T14:29:00.534Z,36.93
2023-02-09T14:31:02.893Z,36.84
2023-02-09T14:33:05.340Z,37.82
2023-02-09T14:35:18.299Z,37.01
2023-02-09T14:37:21.134Z,36.89
2023-02-09T14:39:23.574Z,36.94
2023-02-09T14:41:30.918Z,36.67
2023-02-09T14:43:33.165Z,36.82
2023-02-09T14:45:40.092Z,36.52
2023-02-09T14:47:45.104Z,36.58
2023-02-09T14:49:47.662Z,36.67
2023-02-09T14:51:54.131Z,36.77
2023-02-09T14:53:56.569Z,36.39
2023-02-09T14:55:59.346Z,35.48
2023-02-09T14:58:01.423Z,35.54
2023-02-09T15:00:10.105Z,35.04
2023-02-09T15:02:19.495Z,35.17
2023-02-09T15:04:22.052Z,35.80
2023-02-09T15:06:27.093Z,35.42
2023-02-09T15:08:34.509Z,35.34
2023-02-09T15:10:43.076Z,35.56
2023-02-09T15:12:45.604Z,35.71
2023-02-09T15:14:48.214Z,35.18
2023-02-09T15:16:51.229Z,35.31
2023-02-09T15:18:53.572Z,36.13
2023-02-09T15:20:56.289Z,35.04
2023-02-09T15:23:00.941Z,36.07
2023-02-09T15:25:03.198Z,35.64
2023-02-09T15:27:05.556Z,35.15
2023-02-09T15:29:14.033Z,35.37
2023-02-09T15:31:16.672Z,35.18
2023-02-09T15:33:18.939Z,35.67
2023-02-09T15:35:24.151Z,35.30
2023-02-09T15:37:32.213Z,36.27
2023-02-09T15:39:34.682Z,35.72
2023-02-09T15:41:40.110Z,35.87
2023-02-09T15:43:45.823Z,36.00
2023-02-09T15:45:51.502Z,36.25
2023-02-09T15:47:56.780Z,36.69
2023-02-09T15:49:59.573Z,36.94
2023-02-09T15:52:02.211Z,37.38
2023-02-09T15:54:09.016Z,37.76
2023-02-09T15:56:14.472Z,38.14
2023-02-09T15:58:20.767Z,38.08
2023-02-09T16:00:27.509Z,38.26
2023-02-09T16:02:30.161Z,38.55
2023-02-09T16:04:33.036Z,38.70
2023-02-09T16:06:36.184Z,38.84
2023-02-09T16:08:39.100Z,38.96
2023-02-09T16:10:41.737Z,39.53
2023-02-09T16:12:44.234Z,39.31
2023-02-09T16:14:46.816Z,39.75
2023-02-09T16:16:50.067Z,39.72
2023-02-09T16:18:52.641Z,39.89
2023-02-09T16:20:55.248Z,40.01
2023-02-09T16:23:00.918Z,40.01
2023-02-09T16:25:07.516Z,40.38
2023-02-09T16:27:16.985Z,40.44
2023-02-09T16:29:20.627Z,41.02
2023-02-09T16:31:24.104Z,40.37
2023-02-09T16:33:27.189Z,40.76
2023-02-09T16:35:31.430Z,40.76
2023-02-09T16:37:33.852Z,40.70
2023-02-09T16:39:36.219Z,41.24
2023-02-09T16:41:41.573Z,41.20
2023-02-09T16:46:02.237Z,41.22
2023-02-09T16:48:06.363Z,41.35
2023-02-09T16:50:14.993Z,41.38
2023-02-09T16:52:20.852Z,41.77
2023-02-09T16:54:23.640Z,42.29
2023-02-09T16:56:27.788Z,41.57
2023-02-09T16:58:30.241Z,41.60
2023-02-09T17:00:36.480Z,42.18
2023-02-09T17:02:44.694Z,42.38
2023-02-09T17:04:47.309Z,42.47
2023-02-09T17:06:52.984Z,42.17
2023-02-09T17:08:57.048Z,42.41
2023-02-09T17:11:02.520Z,42.98
2023-02-09T17:13:06.001Z,43.11
2023-02-09T17:15:28.473Z,42.65
2023-02-09T17:17:31.650Z,42.41
2023-02-09T17:19:46.930Z,43.06
2023-02-09T17:21:50.333Z,43.76
2023-02-09T17:23:54.028Z,43.43
2023-02-09T17:25:56.770Z,43.91
2023-02-09T17:27:59.293Z,43.66
2023-02-09T17:30:01.894Z,44.07
2023-02-09T17:32:06.093Z,43.81
2023-02-09T17:34:10.508Z,43.85
2023-02-09T17:36:26.518Z,44.22
2023-02-09T17:38:36.427Z,44.17
2023-02-09T17:40:38.840Z,44.59
2023-02-09T17:42:41.941Z,44.23
2023-02-09T17:44:46.641Z,44.41
2023-02-09T17:46:50.187Z,44.78
2023-02-09T17:48:52.666Z,44.86
2023-02-09T17:50:58.191Z,45.41
2023-02-09T17:53:01.576Z,44.93
2023-02-09T17:55:04.445Z,45.07
2023-02-09T17:57:07.240Z,45.41
2023-02-09T17:59:10.345Z,45.64
2023-02-09T18:01:26.406Z,45.55
2023-02-09T18:03:29.600Z,45.01
2023-02-09T18:05:39.233Z,45.34
2023-02-09T18:07:41.878Z,46.36
2023-02-09T18:09:44.373Z,45.70
2023-02-09T18:11:53.069Z,45.52
2023-02-09T18:13:55.554Z,45.77
2023-02-09T18:15:58.042Z,46.36
2023-02-09T18:18:00.507Z,45.47
2023-02-09T18:20:03.481Z,46.44
2023-02-09T18:22:06.398Z,46.01
2023-02-09T18:24:10.189Z,46.55
2023-02-09T18:26:12.437Z,46.63
2023-02-09T18:28:15.780Z,46.93
2023-02-09T18:30:21.134Z,46.87
2023-02-09T18:32:24.614Z,46.79
2023-02-09T18:34:27.165Z,47.16
2023-02-09T18:36:29.713Z,46.93
2023-02-09T18:38:31.900Z,46.73
2023-02-09T18:40:35.217Z,47.11
2023-02-09T18:42:37.540Z,47.39
2023-02-09T18:44:40.019Z,47.54
2023-02-09T18:46:43.732Z,47.05
2023-02-09T18:48:47.225Z,47.51
2023-02-09T18:50:49.793Z,48.02
2023-02-09T18:52:56.531Z,47.18
2023-02-09T18:54:59.165Z,47.35
2023-02-09T18:57:01.714Z,47.43
2023-02-09T18:59:04.294Z,47.21
2023-02-09T19:01:11.958Z,47.86
2023-02-09T19:03:17.244Z,47.99
2023-02-09T19:05:19.790Z,48.24
2023-02-09T19:07:22.671Z,48.05
2023-02-09T19:09:24.996Z,48.25
2023-02-09T19:11:27.269Z,47.61
2023-02-09T19:13:32.662Z,48.37
2023-02-09T19:15:36.382Z,48.19
2023-02-09T19:17:40.921Z,48.03
2023-02-09T19:19:45.012Z,48.47
2023-02-09T19:21:52.459Z,48.31
2023-02-09T19:23:55.188Z,48.17
2023-02-09T19:26:03.258Z,48.09
2023-02-09T19:28:06.252Z,48.65
2023-02-09T19:30:09.571Z,48.54
2023-02-09T19:32:14.644Z,48.97
2023-02-09T19:34:16.749Z,48.65
2023-02-09T19:36:18.737Z,49.37
2023-02-09T19:38:21.284Z,48.61
2023-02-09T19:40:28.606Z,49.04
2023-02-09T19:42:32.269Z,49.19
2023-02-09T19:44:35.561Z,48.92
2023-02-09T19:46:37.981Z,48.65
2023-02-09T19:48:40.597Z,48.65
2023-02-09T19:50:42.940Z,48.57
2023-02-09T19:52:47.711Z,49.11
2023-02-09T19:54:50.845Z,48.61
2023-02-09T19:56:53.316Z,48.55
2023-02-09T19:58:55.786Z,49.76
2023-02-09T20:00:58.344Z,49.29
2023-02-09T20:03:00.793Z,49.79
2023-02-09T20:05:02.890Z,49.36
2023-02-09T20:07:04.924Z,49.23
2023-02-09T20:09:07.168Z,49.86
2023-02-09T20:11:11.701Z,49.83
2023-02-09T20:13:14.333Z,49.66
2023-02-09T20:15:16.730Z,49.79
2023-02-09T20:19:22.316Z,50.10
2023-02-09T20:21:24.842Z,49.90
2023-02-09T20:23:27.221Z,49.86
2023-02-09T20:25:30.341Z,50.39
2023-02-09T20:27:33.063Z,49.83
2023-02-09T20:29:35.837Z,50.52
2023-02-09T20:31:40.034Z,50.58
2023-02-09T20:33:42.060Z,50.16
2023-02-09T20:35:45.860Z,50.09
2023-02-09T20:37:47.967Z,50.97
2023-02-09T20:39:49.973Z,50.28
2023-02-09T20:42:00.173Z,50.81
2023-02-09T20:44:05.432Z,50.95
2023-02-09T20:46:11.374Z,50.87
2023-02-09T20:48:14.035Z,51.44
2023-02-09T20:50:18.005Z,51.19
2023-02-09T20:52:20.079Z,50.84
2023-02-09T20:54:22.188Z,50.69
2023-02-09T20:56:24.368Z,51.63
2023-02-09T20:58:26.402Z,51.04
2023-02-09T21:00:29.184Z,50.74
2023-02-09T21:02:31.305Z,51.15
2023-02-09T21:04:33.367Z,51.33
2023-02-09T21:06:37.878Z,51.30
2023-02-09T21:08:39.900Z,51.45
2023-02-09T21:10:41.965Z,51.49
2023-02-09T21:12:43.973Z,51.24
2023-02-09T21:14:47.721Z,51.33
2023-02-09T21:16:55.432Z,51.86
2023-02-09T21:18:57.916Z,51.89
2023-02-09T21:21:01.107Z,51.76
2023-02-09T21:23:03.216Z,51.78
2023-02-09T21:25:05.394Z,51.30
2023-02-09T21:27:08.171Z,52.04
2023-02-09T21:29:10.631Z,52.36
2023-02-09T21:31:17.473Z,51.59
2023-02-09T21:33:19.518Z,51.75
2023-02-09T21:35:21.661Z,51.97
2023-02-09T21:37:23.615Z,51.65
2023-02-09T21:39:25.608Z,52.07
2023-02-09T21:41:31.102Z,52.19
2023-02-09T21:43:33.542Z,52.17
2023-02-09T21:45:38.758Z,52.49
2023-02-09T21:47:40.826Z,52.44
2023-02-09T21:49:43.403Z,52.16
2023-02-09T21:51:45.948Z,52.47
2023-02-09T21:53:48.792Z,52.20
2023-02-09T21:55:50.895Z,51.86
2023-02-09T21:57:53.179Z,52.08
2023-02-09T21:59:55.482Z,52.30
2023-02-09T22:01:57.862Z,52.61
2023-02-09T22:04:00.426Z,52.70
2023-02-09T22:06:02.665Z,52.56
2023-02-09T22:08:04.848Z,52.80
2023-02-09T22:10:07.692Z,53.39
2023-02-09T22:12:09.869Z,53.18
2023-02-09T22:14:11.992Z,52.91
2023-02-09T22:16:19.571Z,53.21
2023-02-09T22:18:21.585Z,53.01
2023-02-09T22:20:23.581Z,53.18
2023-02-09T22:22:25.577Z,53.31
2023-02-09T22:24:27.566Z,53.41
2023-02-09T22:26:29.680Z,53.08
2023-02-09T22:28:34.499Z,53.95
2023-02-09T22:30:38.313Z,53.91
2023-02-09T22:32:40.406Z,53.66
2023-02-09T22:34:42.405Z,53.84
2023-02-09T22:36:44.321Z,53.77
2023-02-09T22:38:46.596Z,54.23
2023-02-09T22:40:48.590Z,54.02
2023-02-09T22:42:50.675Z,53.96
2023-02-09T22:44:52.645Z,54.01
2023-02-09T22:46:54.568Z,53.70
2023-02-09T22:48:59.268Z,53.86
2023-02-09T22:51:01.238Z,53.82
2023-02-09T22:53:03.190Z,54.76
2023-02-09T22:55:05.644Z,54.71
2023-02-09T22:57:07.557Z,54.93
2023-02-09T22:59:12.603Z,54.84
2023-02-09T23:01:15.460Z,54.87
2023-02-09T23:03:17.507Z,54.96
2023-02-09T23:05:19.424Z,55.47
2023-02-09T23:07:21.344Z,55.44
2023-02-09T23:09:24.218Z,55.26
2023-02-09T23:11:27.197Z,55.18
2023-02-09T23:13:31.117Z,55.47
2023-02-09T23:15:33.656Z,55.73
2023-02-09T23:17:35.902Z,55.65
2023-02-09T23:19:37.840Z,55.64
2023-02-09T23:21:43.227Z,55.74
2023-02-09T23:23:45.518Z,55.55
2023-02-09T23:25:52.055Z,55.96
2023-02-09T23:27:54.064Z,55.76
2023-02-09T23:29:56.034Z,55.40
2023-02-09T23:31:58.759Z,55.53
2023-02-09T23:34:00.841Z,55.28
2023-02-09T23:36:05.254Z,55.23
2023-02-09T23:38:07.290Z,54.89
2023-02-09T23:40:10.289Z,55.15
2023-02-09T23:42:12.353Z,55.02
2023-02-09T23:44:14.540Z,55.16
2023-02-09T23:46:19.323Z,55.35
2023-02-09T23:48:21.372Z,55.34
2023-02-09T23:50:23.596Z,55.69
2023-02-09T23:52:25.581Z,56.13
2023-02-09T23:54:27.472Z,56.47
2023-02-09T23:56:33.199Z,56.60
2023-02-09T23:58:38.288Z,56.33
